Time;durP1;ratioP1;P1;durP2;ratioP2;P2;SDS_P1;SDS_P2;PMS_P1;PMS_P2;Temp;Humidity;BMP_temperature;BMP_pressure;BME280_temperature;BME280_humidity;BME280_pressure;Samples;Min_cycle;Max_cycle;Signal;HPM_P1;HPM_P2
2021/12/10 00:01:57;;;;;;;4.05;1.92;;;20.40;49.80;;;;;;5037075;28;20140;-64
2021/12/10 00:04:29;;;;;;;5.13;1.90;;;20.30;49.80;;;;;;5039013;28;20049;-64
2021/12/10 00:06:56;;;;;;;5.28;1.80;;;20.30;49.70;;;;;;5037838;28;20053;-64
2021/12/10 00:09:31;;;;;;;6.55;1.73;;;20.30;49.70;;;;;;5038895;28;20041;-64
2021/12/10 00:12:06;;;;;;;6.18;2.08;;;20.30;49.70;;;;;;5038723;28;20041;-64
2021/12/10 00:14:32;;;;;;;4.35;1.92;;;20.30;49.70;;;;;;5036359;28;20034;-63
2021/12/10 00:16:59;;;;;;;4.93;1.92;;;20.30;50.40;;;;;;5036755;28;20478;-63
2021/12/10 00:19:39;;;;;;;4.60;1.77;;;20.20;49.60;;;;;;5038877;28;20107;-64
2021/12/10 00:22:09;;;;;;;4.30;1.60;;;20.20;49.60;;;;;;5037604;28;20478;-64
2021/12/10 00:24:36;;;;;;;5.20;2.33;;;20.20;49.60;;;;;;5037699;28;20056;-64
2021/12/10 00:27:05;;;;;;;6.07;2.05;;;20.20;49.60;;;;;;5038268;28;20046;-64
2021/12/10 00:29:31;;;;;;;5.28;2.13;;;20.30;49.70;;;;;;5036582;28;20064;-64
2021/12/10 00:32:02;;;;;;;4.28;2.00;;;20.20;49.60;;;;;;5038679;28;20041;-64
2021/12/10 00:34:49;;;;;;;4.55;1.95;;;20.20;49.50;;;;;;5037797;28;20041;-64
2021/12/10 00:37:16;;;;;;;4.50;2.20;;;20.20;50.20;;;;;;5033699;28;20051;-64
2021/12/10 00:39:54;;;;;;;4.85;2.00;;;20.20;49.60;;;;;;5033896;28;20045;-64
2021/12/10 00:42:22;;;;;;;8.07;1.90;;;20.20;49.50;;;;;;5033411;28;20049;-64
2021/12/10 00:44:47;;;;;;;5.38;2.08;;;20.10;49.60;;;;;;5033703;28;20405;-64
2021/12/10 00:47:13;;;;;;;4.90;2.10;;;20.20;49.50;;;;;;5035570;28;20045;-64
2021/12/10 00:49:38;;;;;;;4.53;2.10;;;20.10;49.60;;;;;;5032971;28;20073;-64
2021/12/10 00:52:05;;;;;;;5.15;1.95;;;20.10;49.60;;;;;;5033562;28;20046;-64
2021/12/10 00:54:30;;;;;;;5.28;1.90;;;20.10;49.50;;;;;;5034328;28;20053;-64
2021/12/10 00:56:56;;;;;;;4.05;2.05;;;20.10;49.60;;;;;;5034075;28;20045;-63
2021/12/10 00:59:21;;;;;;;5.88;1.98;;;20.10;49.60;;;;;;5033896;28;20041;-64
2021/12/10 01:01:48;;;;;;;4.68;2.22;;;20.10;49.60;;;;;;5034140;28;20061;-64
2021/12/10 01:04:15;;;;;;;4.88;2.13;;;20.10;49.50;;;;;;5033024;28;20140;-64
2021/12/10 01:06:42;;;;;;;5.63;1.73;;;20.10;49.60;;;;;;5034569;28;20075;-64
2021/12/10 01:09:17;;;;;;;5.10;1.80;;;20.00;49.50;;;;;;5035015;28;20042;-64
2021/12/10 01:11:50;;;;;;;7.68;1.92;;;20.00;49.50;;;;;;5032622;28;20049;-64
2021/12/10 01:14:24;;;;;;;5.82;1.88;;;20.00;49.60;;;;;;5035083;28;20124;-63
2021/12/10 01:25:11;;;;;;;4.72;1.90;;;20.00;49.60;;;;;;5032020;28;20425;-64
2021/12/10 01:27:40;;;;;;;4.93;1.80;;;20.00;49.60;;;;;;5049261;28;20045;-63
2021/12/10 01:30:05;;;;;;;;;;;20.00;49.60;;;;;;5033740;28;20046;-64
2021/12/10 01:32:33;;;;;;;5.80;1.90;;;20.00;49.60;;;;;;5049101;28;20391;-63
2021/12/10 01:34:58;;;;;;;4.75;2.10;;;19.90;49.60;;;;;;5034362;28;20045;-64
2021/12/10 01:37:25;;;;;;;4.35;1.70;;;20.00;49.60;;;;;;5034265;28;20057;-63
2021/12/10 01:39:50;;;;;;;4.68;1.73;;;19.90;49.50;;;;;;5031847;28;20069;-63
2021/12/10 01:44:52;;;;;;;4.25;1.60;;;19.90;49.60;;;;;;5031808;28;20048;-63
2021/12/10 01:47:19;;;;;;;3.65;1.60;;;19.90;49.50;;;;;;5032588;28;20055;-64
2021/12/10 01:49:45;;;;;;;4.25;1.85;;;19.90;49.50;;;;;;5033786;28;20045;-63
2021/12/10 01:52:15;;;;;;;6.15;1.80;;;19.90;49.60;;;;;;5031963;28;20053;-64
2021/12/10 01:54:51;;;;;;;3.47;1.50;;;19.90;49.60;;;;;;5034102;28;20052;-64
2021/12/10 01:57:17;;;;;;;4.43;1.38;;;19.90;49.60;;;;;;5032570;28;20045;-63
2021/12/10 01:59:43;;;;;;;5.18;1.75;;;19.90;49.60;;;;;;5031822;28;20041;-64
2021/12/10 02:02:18;;;;;;;5.25;1.92;;;19.90;49.50;;;;;;5032551;28;20095;-63
2021/12/10 02:04:45;;;;;;;4.53;1.88;;;19.90;49.50;;;;;;5032272;28;20060;-63
2021/12/10 02:07:12;;;;;;;4.38;1.85;;;19.90;49.60;;;;;;5031958;28;20052;-63
2021/12/10 02:09:38;;;;;;;5.55;1.40;;;19.80;50.30;;;;;;5032621;28;20393;-63
2021/12/10 02:12:04;;;;;;;4.45;1.83;;;19.80;49.60;;;;;;5033392;28;20055;-63
2021/12/10 02:14:29;;;;;;;4.20;1.70;;;19.80;49.50;;;;;;5048406;28;20116;-63
2021/12/10 02:16:56;;;;;;;5.30;1.75;;;19.80;49.50;;;;;;5032079;28;20041;-64
2021/12/10 02:19:22;;;;;;;4.25;1.75;;;19.80;49.50;;;;;;5032122;28;20103;-64
2021/12/10 02:21:48;;;;;;;3.45;1.40;;;19.80;49.50;;;;;;5031414;28;20049;-64
2021/12/10 02:24:13;;;;;;;5.20;1.48;;;19.80;49.50;;;;;;5032070;28;20466;-63
2021/12/10 02:26:42;;;;;;;3.80;1.48;;;19.80;49.50;;;;;;5032410;28;20053;-64
2021/12/10 02:29:08;;;;;;;3.10;1.48;;;19.80;49.50;;;;;;5031629;28;20049;-63
2021/12/10 02:31:34;;;;;;;3.63;1.52;;;19.80;49.50;;;;;;5031829;28;20095;-63
2021/12/10 02:34:01;;;;;;;4.15;1.50;;;19.80;49.50;;;;;;5030785;28;20115;-64
2021/12/10 02:36:27;;;;;;;4.95;1.60;;;19.70;49.40;;;;;;5031792;28;20045;-63
2021/12/10 02:38:53;;;;;;;4.68;1.42;;;19.80;49.50;;;;;;5031689;28;20056;-64
2021/12/10 02:41:21;;;;;;;3.58;1.48;;;19.80;49.50;;;;;;5032643;28;20041;-64
2021/12/10 02:43:47;;;;;;;4.38;1.55;;;19.80;49.50;;;;;;5031514;28;20052;-63
2021/12/10 02:46:13;;;;;;;3.40;1.27;;;19.80;49.50;;;;;;5032057;28;20068;-64
2021/12/10 02:48:38;;;;;;;4.70;1.50;;;19.80;49.50;;;;;;5032269;28;20402;-63
2021/12/10 02:51:04;;;;;;;2.95;1.55;;;19.80;49.50;;;;;;5032700;28;20041;-63
2021/12/10 02:53:34;;;;;;;3.92;1.65;;;19.80;49.50;;;;;;5033268;28;20046;-63
2021/12/10 02:56:00;;;;;;;4.40;1.80;;;19.80;49.40;;;;;;5032066;28;20120;-63
2021/12/10 02:58:26;;;;;;;4.38;1.50;;;19.80;49.40;;;;;;5032501;28;20195;-63
2021/12/10 03:00:59;;;;;;;4.22;1.42;;;19.80;49.40;;;;;;5025383;28;20041;-63
2021/12/10 03:03:24;;;;;;;4.55;1.88;;;19.80;49.40;;;;;;5012476;28;20128;-63
2021/12/10 03:05:50;;;;;;;3.85;1.50;;;19.80;49.30;;;;;;5012178;28;20192;-64
2021/12/10 03:08:16;;;;;;;5.70;1.80;;;19.80;49.30;;;;;;5012876;28;20128;-63
2021/12/10 03:10:41;;;;;;;2.78;1.33;;;19.90;49.40;;;;;;5011037;28;20060;-63
2021/12/10 03:13:08;;;;;;;3.40;1.40;;;19.90;49.30;;;;;;5012864;28;20038;-63
2021/12/10 03:15:35;;;;;;;5.57;1.80;;;19.90;49.30;;;;;;5011717;28;20453;-64
2021/12/10 03:18:01;;;;;;;3.63;1.70;;;19.90;49.30;;;;;;5010772;28;20061;-64
2021/12/10 03:20:29;;;;;;;3.03;1.33;;;19.90;49.30;;;;;;5011582;28;20046;-64
2021/12/10 03:22:55;;;;;;;4.53;1.55;;;19.90;49.30;;;;;;5012911;28;20168;-64
2021/12/10 03:25:21;;;;;;;4.13;1.50;;;19.90;49.30;;;;;;5010940;28;20557;-64
2021/12/10 03:27:46;;;;;;;6.45;1.67;;;19.90;49.30;;;;;;5012468;28;20045;-64
2021/12/10 03:30:15;;;;;;;4.00;1.50;;;19.90;49.30;;;;;;5012266;28;20042;-64
2021/12/10 03:32:41;;;;;;;2.58;1.20;;;19.90;49.30;;;;;;5012747;28;20100;-64
2021/12/10 03:35:09;;;;;;;4.40;1.40;;;19.90;49.20;;;;;;5012774;28;20042;-64
2021/12/10 03:37:36;;;;;;;4.93;1.65;;;20.00;49.30;;;;;;5010733;28;20116;-63
2021/12/10 03:40:03;;;;;;;2.53;1.20;;;20.00;49.30;;;;;;5012373;28;20153;-63
2021/12/10 03:42:28;;;;;;;3.17;1.35;;;19.90;49.20;;;;;;5012782;28;20049;-64
2021/12/10 03:44:54;;;;;;;3.28;1.20;;;20.00;49.30;;;;;;5011662;28;20046;-64
2021/12/10 03:47:20;;;;;;;2.67;1.15;;;19.90;49.10;;;;;;5012678;28;20091;-64
2021/12/10 03:49:45;;;;;;;4.05;1.40;;;20.00;49.20;;;;;;5011223;28;20196;-63
2021/12/10 03:52:11;;;;;;;3.53;1.27;;;20.00;49.20;;;;;;5011986;28;20041;-63
2021/12/10 03:54:37;;;;;;;3.40;1.33;;;20.00;49.20;;;;;;5012624;28;20046;-63
2021/12/10 03:57:03;;;;;;;3.17;1.40;;;20.00;49.20;;;;;;5012322;28;20045;-64
2021/12/10 03:59:30;;;;;;;4.22;1.30;;;20.00;49.20;;;;;;5010464;28;20050;-63
2021/12/10 04:01:56;;;;;;;4.10;1.50;;;20.00;49.20;;;;;;5010590;28;20108;-64
2021/12/10 04:04:27;;;;;;;2.90;1.48;;;20.00;49.20;;;;;;5012510;28;20057;-63
2021/12/10 04:06:53;;;;;;;2.53;1.30;;;20.00;49.20;;;;;;5011669;28;20125;-63
2021/12/10 04:09:18;;;;;;;3.55;1.40;;;20.00;49.20;;;;;;5011129;28;20137;-64
2021/12/10 04:11:44;;;;;;;4.05;1.48;;;20.00;49.10;;;;;;5013640;28;20046;-63
2021/12/10 04:14:10;;;;;;;3.15;1.48;;;20.10;49.20;;;;;;5014217;28;20050;-63
2021/12/10 04:16:35;;;;;;;3.10;1.25;;;20.00;49.10;;;;;;5014862;28;20053;-63
2021/12/10 04:19:01;;;;;;;3.03;1.33;;;20.00;49.10;;;;;;5014440;28;20046;-63
2021/12/10 04:21:27;;;;;;;3.88;1.45;;;20.10;49.20;;;;;;5013979;28;20569;-63
2021/12/10 04:23:53;;;;;;;4.07;1.45;;;20.10;49.10;;;;;;5014092;28;20121;-63
2021/12/10 04:26:20;;;;;;;2.63;1.45;;;20.00;49.10;;;;;;5015822;28;20065;-63
2021/12/10 04:28:46;;;;;;;3.78;1.88;;;20.10;49.10;;;;;;5013535;28;20490;-64
2021/12/10 04:31:12;;;;;;;2.72;1.20;;;20.10;49.20;;;;;;5015716;28;20050;-63
2021/12/10 04:33:37;;;;;;;3.95;1.25;;;20.10;49.20;;;;;;5015127;28;20045;-63
2021/12/10 04:36:03;;;;;;;5.65;1.20;;;20.10;49.10;;;;;;5015562;28;20046;-63
2021/12/10 04:38:30;;;;;;;3.47;1.50;;;20.10;49.20;;;;;;5014559;28;20042;-64
2021/12/10 04:40:59;;;;;;;2.58;1.20;;;20.10;49.10;;;;;;5014699;28;20034;-63
2021/12/10 04:43:24;;;;;;;3.72;1.63;;;20.10;49.10;;;;;;5014686;28;20061;-63
2021/12/10 04:45:54;;;;;;;3.13;1.30;;;20.10;49.10;;;;;;5015413;28;20382;-64
2021/12/10 04:48:20;;;;;;;3.20;1.33;;;20.10;49.00;;;;;;5015120;28;20064;-63
2021/12/10 04:50:45;;;;;;;3.33;1.50;;;20.10;49.00;;;;;;5015142;28;20485;-63
2021/12/10 04:53:11;;;;;;;2.92;1.38;;;20.10;49.00;;;;;;5015678;28;20168;-63
2021/12/10 04:55:37;;;;;;;2.97;1.35;;;20.10;49.00;;;;;;5013133;28;20111;-63
2021/12/10 04:58:03;;;;;;;2.63;1.38;;;20.10;49.00;;;;;;5013724;28;20054;-63
2021/12/10 05:00:31;;;;;;;3.45;1.33;;;20.10;48.90;;;;;;5014717;28;20045;-63
2021/12/10 05:02:57;;;;;;;3.47;1.60;;;20.10;48.90;;;;;;5013917;28;20065;-63
2021/12/10 05:05:22;;;;;;;4.35;1.42;;;20.10;48.90;;;;;;5012995;28;20045;-63
2021/12/10 05:07:48;;;;;;;3.25;1.30;;;20.10;48.90;;;;;;5014452;28;20042;-63
2021/12/10 05:10:14;;;;;;;3.55;1.42;;;20.10;48.90;;;;;;5014499;28;20034;-63
2021/12/10 05:12:40;;;;;;;2.67;1.30;;;20.10;49.00;;;;;;5014982;28;20482;-63
2021/12/10 05:15:07;;;;;;;2.33;1.25;;;20.10;48.90;;;;;;5013947;28;20049;-63
2021/12/10 05:17:34;;;;;;;2.65;1.13;;;20.10;48.80;;;;;;5012976;28;20107;-63
2021/12/10 05:20:01;;;;;;;2.75;1.08;;;20.10;48.80;;;;;;5014778;28;20045;-63
2021/12/10 05:22:26;;;;;;;2.40;1.23;;;20.10;48.80;;;;;;5014114;28;20050;-63
2021/12/10 05:24:52;;;;;;;2.75;1.23;;;20.10;48.80;;;;;;5013523;28;20038;-63
2021/12/10 05:27:17;;;;;;;2.78;1.20;;;20.10;48.80;;;;;;5013471;28;20068;-64
2021/12/10 05:29:43;;;;;;;3.75;1.05;;;20.10;48.80;;;;;;4996413;28;20045;-63
2021/12/10 05:32:09;;;;;;;3.53;1.25;;;20.10;48.80;;;;;;5014898;28;20414;-63
2021/12/10 05:34:36;;;;;;;2.38;1.20;;;20.10;48.80;;;;;;5014602;28;20077;-63
2021/12/10 05:37:02;;;;;;;2.60;1.30;;;20.10;48.80;;;;;;5012282;28;20152;-63
2021/12/10 05:39:28;;;;;;;2.33;1.10;;;20.10;48.80;;;;;;5014269;28;20057;-63
2021/12/10 05:41:53;;;;;;;2.38;1.27;;;20.10;48.80;;;;;;5014002;28;20068;-63
2021/12/10 05:44:19;;;;;;;2.97;1.27;;;20.10;48.70;;;;;;5014000;28;20038;-63
2021/12/10 05:46:44;;;;;;;1.40;0.93;;;20.10;48.70;;;;;;5014423;28;20045;-63
2021/12/10 05:49:10;;;;;;;2.45;0.98;;;20.10;48.70;;;;;;5014673;28;20074;-64
2021/12/10 05:51:35;;;;;;;3.33;1.30;;;20.10;48.70;;;;;;5013854;28;20127;-63
2021/12/10 05:54:02;;;;;;;2.92;1.10;;;20.10;48.70;;;;;;5014127;28;20410;-63
2021/12/10 05:56:27;;;;;;;2.38;1.10;;;20.10;48.70;;;;;;5013310;28;20046;-63
2021/12/10 05:58:53;;;;;;;1.90;1.10;;;20.10;48.70;;;;;;5011862;28;20042;-63
2021/12/10 06:01:18;;;;;;;2.72;1.08;;;20.10;48.70;;;;;;5014121;28;20046;-63
2021/12/10 06:03:51;;;;;;;2.65;1.13;;;20.10;48.70;;;;;;5012541;28;20502;-63
2021/12/10 06:06:18;;;;;;;1.88;1.00;;;20.10;48.70;;;;;;5012145;28;20053;-63
2021/12/10 06:08:43;;;;;;;3.22;1.00;;;20.10;48.70;;;;;;5012493;28;20050;-64
2021/12/10 06:11:09;;;;;;;3.90;1.10;;;20.10;48.70;;;;;;5012363;28;20042;-64
2021/12/10 06:13:34;;;;;;;2.33;1.00;;;20.10;48.70;;;;;;5013349;28;20513;-64
2021/12/10 06:16:00;;;;;;;1.73;0.90;;;20.10;48.70;;;;;;5013727;28;20920;-64
2021/12/10 06:18:25;;;;;;;2.17;1.00;;;20.10;48.60;;;;;;5013740;28;20148;-63
2021/12/10 06:20:51;;;;;;;3.50;1.10;;;20.10;48.60;;;;;;5012755;28;20085;-63
2021/12/10 06:23:17;;;;;;;2.45;0.90;;;20.10;48.60;;;;;;5013581;28;20046;-63
2021/12/10 06:25:43;;;;;;;2.22;0.90;;;20.10;48.60;;;;;;5013475;28;20149;-63
2021/12/10 06:28:08;;;;;;;1.98;1.20;;;20.10;48.60;;;;;;5013112;28;20038;-63
2021/12/10 06:30:37;;;;;;;2.20;0.98;;;20.10;48.60;;;;;;5012451;28;20533;-62
2021/12/10 06:33:04;;;;;;;2.72;1.00;;;20.10;48.60;;;;;;5012723;28;20034;-63
2021/12/10 06:35:30;;;;;;;3.75;1.20;;;20.10;48.60;;;;;;5012176;28;20467;-63
2021/12/10 06:37:56;;;;;;;1.90;0.80;;;20.20;48.60;;;;;;5013191;28;20057;-63
2021/12/10 06:40:22;;;;;;;2.13;0.93;;;20.20;48.60;;;;;;5012460;28;20038;-64
2021/12/10 06:42:49;;;;;;;1.73;0.90;;;20.10;48.60;;;;;;5013313;28;20076;-64
2021/12/10 06:45:17;;;;;;;1.88;0.80;;;20.20;48.60;;;;;;5013426;28;20049;-63
2021/12/10 06:47:47;;;;;;;1.73;0.98;;;20.10;48.60;;;;;;5010995;28;20121;-63
2021/12/10 06:50:17;;;;;;;1.70;0.93;;;20.20;48.60;;;;;;5013640;28;20048;-63
2021/12/10 06:52:42;;;;;;;3.17;1.02;;;20.20;48.50;;;;;;5012941;28;20046;-63
2021/12/10 06:55:08;;;;;;;3.90;0.88;;;20.20;48.50;;;;;;5020035;28;20451;-62
2021/12/10 06:57:35;;;;;;;5.35;1.10;;;20.20;48.50;;;;;;5030524;28;20041;-63
2021/12/10 07:00:02;;;;;;;3.03;0.90;;;20.20;48.50;;;;;;5031488;28;20049;-62
2021/12/10 07:02:29;;;;;;;2.40;1.00;;;20.20;48.60;;;;;;5030781;28;20505;-63
2021/12/10 07:04:54;;;;;;;2.78;1.08;;;20.20;48.50;;;;;;5032539;28;20049;-63
2021/12/10 07:07:20;;;;;;;1.85;0.80;;;20.20;48.50;;;;;;5031175;28;20382;-63
2021/12/10 07:09:45;;;;;;;4.05;1.00;;;20.20;48.50;;;;;;5030422;28;20053;-63
2021/12/10 07:12:12;;;;;;;4.80;1.00;;;20.20;48.50;;;;;;5032692;28;20099;-63
2021/12/10 07:14:38;;;;;;;2.60;1.00;;;20.20;48.50;;;;;;5031499;28;20092;-63
2021/12/10 07:17:03;;;;;;;2.90;1.10;;;20.20;48.60;;;;;;5031549;28;20076;-62
2021/12/10 07:19:29;;;;;;;1.58;0.93;;;20.20;48.60;;;;;;5031673;28;20570;-63
2021/12/10 07:21:54;;;;;;;2.75;0.80;;;20.20;48.60;;;;;;5032249;28;20496;-62
2021/12/10 07:24:20;;;;;;;3.45;1.00;;;20.20;48.70;;;;;;5030740;28;20045;-62
2021/12/10 07:26:46;;;;;;;3.22;0.80;;;20.20;48.70;;;;;;5032237;28;20069;-62
2021/12/10 07:29:11;;;;;;;2.30;0.80;;;20.20;48.70;;;;;;5018127;28;20505;-62
2021/12/10 07:31:37;;;;;;;3.88;0.90;;;20.20;48.70;;;;;;5010955;28;20490;-63
2021/12/10 07:34:03;;;;;;;6.18;1.10;;;20.20;48.80;;;;;;5030107;28;20404;-64
2021/12/10 07:36:28;;;;;;;7.55;0.85;;;20.30;49.00;;;;;;5031500;28;20070;-64
2021/12/10 07:38:56;;;;;;;4.38;1.15;;;20.20;49.10;;;;;;5032863;28;20049;-64
2021/12/10 07:41:21;;;;;;;2.50;0.90;;;20.20;49.20;;;;;;5032635;28;20091;-65
2021/12/10 07:43:47;;;;;;;2.25;0.82;;;20.20;49.30;;;;;;5030413;28;20037;-65
2021/12/10 07:46:13;;;;;;;1.85;0.77;;;20.30;49.50;;;;;;5034631;28;20137;-65
2021/12/10 07:48:38;;;;;;;3.55;0.80;;;20.30;49.60;;;;;;5036697;28;20037;-65
2021/12/10 07:51:09;;;;;;;2.90;0.90;;;20.30;49.60;;;;;;5033909;28;20079;-63
2021/12/10 07:53:34;;;;;;;3.50;0.90;;;20.30;49.80;;;;;;5035369;28;20041;-64
2021/12/10 07:56:01;;;;;;;4.25;1.02;;;20.30;49.80;;;;;;5025636;28;20050;-64
2021/12/10 07:58:28;;;;;;;2.38;0.73;;;20.30;49.80;;;;;;5030245;28;20045;-63
2021/12/10 08:00:54;;;;;;;2.40;0.88;;;20.30;50.00;;;;;;5030935;28;20061;-63
2021/12/10 08:03:19;;;;;;;3.42;0.90;;;20.40;50.20;;;;;;5035730;28;20053;-63
2021/12/10 08:05:45;;;;;;;2.85;0.90;;;20.30;50.20;;;;;;5034954;28;20061;-62
2021/12/10 08:08:10;;;;;;;3.80;1.00;;;20.30;50.20;;;;;;5035049;28;20048;-63
2021/12/10 08:10:36;;;;;;;2.03;0.70;;;20.30;50.40;;;;;;5034728;28;20038;-63
2021/12/10 08:13:02;;;;;;;2.17;0.80;;;20.30;50.40;;;;;;5034783;28;20053;-63
2021/12/10 08:15:27;;;;;;;3.55;1.00;;;20.40;50.60;;;;;;5034831;28;20075;-64
2021/12/10 08:17:53;;;;;;;3.00;0.77;;;20.40;50.70;;;;;;5035761;28;20050;-64
2021/12/10 08:20:20;;;;;;;2.00;0.80;;;20.40;50.80;;;;;;5035006;28;20053;-63
2021/12/10 08:22:46;;;;;;;3.20;0.77;;;20.40;50.80;;;;;;5035669;28;20048;-64
2021/12/10 08:25:12;;;;;;;2.20;0.70;;;20.40;50.80;;;;;;5034663;28;20473;-63
2021/12/10 08:27:38;;;;;;;3.13;0.90;;;20.40;50.80;;;;;;5034031;28;20096;-64
2021/12/10 08:30:08;;;;;;;3.00;0.98;;;20.40;50.90;;;;;;5035110;28;20042;-64
2021/12/10 08:32:34;;;;;;;4.25;0.82;;;20.40;51.00;;;;;;5033825;28;20086;-64
2021/12/10 08:35:01;;;;;;;1.88;0.60;;;20.40;50.90;;;;;;5033868;28;20045;-63
2021/12/10 08:37:26;;;;;;;2.00;0.88;;;20.50;51.00;;;;;;5034056;28;20140;-63
2021/12/10 08:39:52;;;;;;;2.53;0.80;;;20.50;51.10;;;;;;5033354;28;20136;-63
2021/12/10 08:42:17;;;;;;;6.05;0.70;;;20.50;51.10;;;;;;5035719;28;20046;-63
2021/12/10 08:44:43;;;;;;;2.70;0.73;;;20.50;51.10;;;;;;5033888;28;20053;-60
2021/12/10 08:47:10;;;;;;;2.05;0.70;;;20.50;51.10;;;;;;5034839;28;20041;-63
2021/12/10 08:49:36;;;;;;;3.60;0.88;;;20.50;51.10;;;;;;5035152;28;20132;-63
2021/12/10 08:52:02;;;;;;;3.17;0.80;;;20.50;51.00;;;;;;5033967;28;20125;-62
2021/12/10 08:54:28;;;;;;;2.40;0.70;;;20.50;50.70;;;;;;5034751;28;20041;-62
2021/12/10 08:56:54;;;;;;;2.53;0.80;;;20.50;50.70;;;;;;5033687;28;20041;-62
2021/12/10 08:59:23;;;;;;;2.72;1.00;;;20.60;50.90;;;;;;5034142;28;20107;-62
2021/12/10 09:01:49;;;;;;;5.38;0.80;;;20.60;50.90;;;;;;5032743;28;20060;-63
2021/12/10 09:04:15;;;;;;;4.65;0.80;;;20.60;50.90;;;;;;5034109;28;20046;-61
2021/12/10 09:06:45;;;;;;;1.88;0.80;;;20.60;50.90;;;;;;5033419;28;20040;-62
2021/12/10 09:09:12;;;;;;;3.08;0.82;;;20.60;50.90;;;;;;5033010;28;20401;-63
2021/12/10 09:11:39;;;;;;;2.58;0.70;;;20.60;50.80;;;;;;5034766;28;20052;-61
2021/12/10 09:14:06;;;;;;;5.40;0.88;;;20.60;50.80;;;;;;5033237;28;20052;-62
2021/12/10 09:16:32;;;;;;;2.05;0.70;;;20.60;50.80;;;;;;5032719;28;20049;-62
2021/12/10 09:19:01;;;;;;;2.47;0.60;;;20.60;50.80;;;;;;5034428;28;20041;-62
2021/12/10 09:21:27;;;;;;;5.95;1.08;;;20.70;50.80;;;;;;5034839;28;20045;-62
2021/12/10 09:23:56;;;;;;;2.50;0.60;;;20.70;50.60;;;;;;5033474;28;20041;-62
2021/12/10 09:26:25;;;;;;;1.88;0.93;;;20.70;50.50;;;;;;5034550;28;20537;-62
2021/12/10 09:28:51;;;;;;;2.80;0.77;;;20.70;50.40;;;;;;5033581;28;20141;-62
2021/12/10 09:31:16;;;;;;;1.60;0.70;;;20.70;50.30;;;;;;5034739;28;20718;-62
2021/12/10 09:33:42;;;;;;;3.65;0.60;;;20.70;50.40;;;;;;5034325;28;20043;-62
2021/12/10 09:36:08;;;;;;;3.28;0.90;;;20.70;50.40;;;;;;5033707;28;20508;-62
2021/12/10 09:38:33;;;;;;;3.58;0.60;;;20.70;50.30;;;;;;5034237;28;20042;-62
2021/12/10 09:41:02;;;;;;;4.93;0.70;;;20.70;50.30;;;;;;5034193;28;20045;-64
2021/12/10 09:43:28;;;;;;;4.40;0.95;;;20.70;50.30;;;;;;5033775;28;20049;-64
2021/12/10 09:45:54;;;;;;;5.90;0.98;;;20.70;50.20;;;;;;5032521;28;20124;-62
2021/12/10 09:48:20;;;;;;;4.70;0.90;;;20.70;50.30;;;;;;5034461;28;20140;-63
2021/12/10 09:50:54;;;;;;;6.10;1.17;;;20.80;50.40;;;;;;5033145;28;20045;-64
2021/12/10 09:53:19;;;;;;;5.28;0.98;;;20.70;50.30;;;;;;5034004;28;20075;-63
2021/12/10 09:55:46;;;;;;;6.68;1.17;;;20.70;50.30;;;;;;5015819;28;20053;-64
2021/12/10 09:58:11;;;;;;;9.48;1.13;;;20.70;50.30;;;;;;5012029;28;20128;-64
2021/12/10 10:00:43;;;;;;;5.03;1.00;;;20.70;50.20;;;;;;5013205;28;20176;-63
2021/12/10 10:03:10;;;;;;;5.30;1.15;;;20.70;50.00;;;;;;5012638;28;20065;-62
2021/12/10 10:05:38;;;;;;;4.05;1.00;;;20.70;49.90;;;;;;5013627;28;20046;-64
2021/12/10 10:08:06;;;;;;;3.78;0.90;;;20.70;49.70;;;;;;5013289;28;20494;-62
2021/12/10 10:10:31;;;;;;;3.43;0.87;;;20.70;49.40;;;;;;5015019;28;20493;-62
2021/12/10 10:12:57;;;;;;;3.03;0.95;;;20.70;49.40;;;;;;5026964;28;20057;-62
2021/12/10 10:15:27;;;;;;;6.03;1.08;;;20.70;49.40;;;;;;5032176;28;20076;-63
2021/12/10 10:17:57;;;;;;;3.75;1.30;;;20.70;49.30;;;;;;5033407;28;20489;-62
2021/12/10 10:20:23;;;;;;;13.05;1.27;;;20.70;49.10;;;;;;5033099;28;20120;-63
2021/12/10 10:22:49;;;;;;;4.75;1.25;;;20.70;48.80;;;;;;5032273;28;20140;-61
2021/12/10 10:25:16;;;;;;;7.28;1.02;;;20.70;48.60;;;;;;5028280;28;20034;-61
2021/12/10 10:27:41;;;;;;;7.28;1.20;;;20.70;48.20;;;;;;5031768;28;20045;-61
2021/12/10 10:30:30;;;;;;;5.45;1.10;;;20.70;48.50;;;;;;5022241;28;20044;-60
2021/12/10 10:32:57;;;;;;;3.50;1.00;;;20.70;49.00;;;;;;5022652;28;20059;-61
2021/12/10 10:35:27;;;;;;;4.85;0.93;;;20.70;49.30;;;;;;5025416;28;20508;-60
2021/12/10 10:37:53;;;;;;;4.68;1.10;;;20.80;49.60;;;;;;5030587;28;20041;-61
2021/12/10 10:40:23;;;;;;;3.65;0.90;;;20.80;49.60;;;;;;5032583;28;20083;-63
2021/12/10 10:42:49;;;;;;;2.60;0.73;;;20.80;49.50;;;;;;5028222;28;20044;-63
2021/12/10 10:45:17;;;;;;;3.17;0.90;;;20.80;49.60;;;;;;5018074;28;20133;-62
2021/12/10 10:47:46;;;;;;;4.65;1.08;;;20.80;49.60;;;;;;5012439;28;20046;-61
2021/12/10 10:50:21;;;;;;;3.75;0.98;;;20.90;49.70;;;;;;5012243;28;20126;-62
2021/12/10 10:52:49;;;;;;;2.97;0.90;;;20.90;50.00;;;;;;5012049;28;20057;-62
2021/12/10 10:55:27;;;;;;;4.35;0.90;;;20.90;50.10;;;;;;5011277;28;20124;-62
2021/12/10 10:57:57;;;;;;;7.85;1.05;;;20.90;50.20;;;;;;5011707;28;20402;-62
2021/12/10 11:00:32;;;;;;;2.85;0.80;;;20.90;50.30;;;;;;5012470;28;20049;-62
2021/12/10 11:03:04;;;;;;;4.18;0.75;;;20.90;50.40;;;;;;5010851;28;20052;-62
2021/12/10 11:05:30;;;;;;;3.47;0.70;;;20.90;50.50;;;;;;5015766;28;20048;-61
2021/12/10 11:07:58;;;;;;;4.18;1.00;;;20.90;50.50;;;;;;5017322;28;20050;-62
2021/12/10 11:10:27;;;;;;;6.15;0.90;;;20.90;50.50;;;;;;5011989;28;20053;-62
2021/12/10 11:12:52;;;;;;;1.67;0.75;;;20.90;50.60;;;;;;5017850;28;20129;-62
2021/12/10 11:15:18;;;;;;;5.10;0.70;;;20.90;50.60;;;;;;5018902;28;20124;-61
2021/12/10 11:17:46;;;;;;;1.40;0.70;;;20.90;50.30;;;;;;5023709;28;20045;-61
2021/12/10 11:20:20;;;;;;;3.35;0.90;;;20.90;50.20;;;;;;5016120;28;20049;-62
2021/12/10 11:22:51;;;;;;;4.90;0.90;;;20.90;50.30;;;;;;5023789;28;20128;-62
2021/12/10 11:25:19;;;;;;;2.35;0.60;;;20.90;50.40;;;;;;5024984;28;20046;-61
2021/12/10 11:27:45;;;;;;;2.63;0.65;;;21.00;50.50;;;;;;5032142;28;20041;-62
2021/12/10 11:30:19;;;;;;;5.32;1.25;;;21.00;50.50;;;;;;5030646;28;20049;-63
2021/12/10 11:32:52;;;;;;;1.58;0.55;;;21.00;50.60;;;;;;5031160;28;20072;-62
2021/12/10 11:35:23;;;;;;;3.72;0.90;;;21.00;50.60;;;;;;5029658;28;20057;-61
2021/12/10 11:38:17;;;;;;;4.00;0.85;;;21.00;50.50;;;;;;5022307;28;20046;-63
2021/12/10 11:40:53;;;;;;;1.85;0.52;;;21.00;50.50;;;;;;5022061;28;20117;-61
2021/12/10 11:43:52;;;;;;;2.42;0.60;;;21.00;50.60;;;;;;5031906;28;20103;-62
2021/12/10 11:46:48;;;;;;;4.57;0.60;;;21.00;50.60;;;;;;5026433;28;20077;-62
2021/12/10 11:49:24;;;;;;;2.22;0.80;;;21.00;50.60;;;;;;5017971;28;20398;-62
2021/12/10 11:51:49;;;;;;;3.25;0.73;;;21.00;50.60;;;;;;5027998;28;20049;-61
2021/12/10 11:54:53;;;;;;;1.65;0.43;;;21.00;50.40;;;;;;5032491;28;20046;-61
2021/12/10 11:57:40;;;;;;;3.78;0.70;;;21.00;50.30;;;;;;5008928;28;20057;-62
2021/12/10 12:00:10;;;;;;;2.38;0.80;;;21.00;50.20;;;;;;5032010;28;20045;-62
2021/12/10 12:02:44;;;;;;;3.58;0.70;;;21.00;50.20;;;;;;5032111;28;20494;-62
2021/12/10 12:05:12;;;;;;;1.55;0.50;;;21.00;50.20;;;;;;5031310;28;20124;-62
2021/12/10 12:07:42;;;;;;;4.13;0.85;;;21.00;50.90;;;;;;5032428;28;20159;-63
2021/12/10 12:10:12;;;;;;;2.95;0.77;;;21.00;50.00;;;;;;5032505;28;20045;-62
2021/12/10 12:12:43;;;;;;;3.40;0.80;;;21.00;49.80;;;;;;5030084;28;20049;-61
2021/12/10 12:15:17;;;;;;;3.25;0.93;;;21.00;49.90;;;;;;5032293;28;20145;-61
2021/12/10 12:17:57;;;;;;;2.15;0.60;;;21.00;50.10;;;;;;5030934;28;20053;-61
2021/12/10 12:20:31;;;;;;;4.65;0.70;;;21.00;50.20;;;;;;5032086;28;20048;-61
2021/12/10 12:26:21;;;;;;;3.58;0.75;;;21.00;50.30;;;;;;5025515;28;20049;-64
2021/12/10 12:28:47;;;;;;;2.85;0.80;;;21.00;50.20;;;;;;5031886;28;20103;-64
2021/12/10 12:31:21;;;;;;;2.20;0.60;;;21.00;50.30;;;;;;5032456;28;20102;-65
2021/12/10 12:33:57;;;;;;;4.35;0.70;;;21.00;50.30;;;;;;5029786;28;20120;-64
2021/12/10 12:36:31;;;;;;;2.92;0.80;;;21.00;50.30;;;;;;5027739;28;20045;-64
2021/12/10 12:38:57;;;;;;;5.10;0.82;;;21.00;50.30;;;;;;5040030;28;20473;-63
2021/12/10 12:41:31;;;;;;;2.08;0.82;;;21.10;50.30;;;;;;5014342;28;20044;-64
2021/12/10 12:44:13;;;;;;;2.40;0.77;;;21.10;50.30;;;;;;5014196;28;20054;-64
2021/12/10 12:47:06;;;;;;;2.05;0.50;;;21.10;50.30;;;;;;5013924;28;20050;-64
2021/12/10 12:49:48;;;;;;;1.63;0.70;;;21.10;50.30;;;;;;5014555;28;20549;-64
2021/12/10 12:52:20;;;;;;;1.52;0.63;;;21.10;50.30;;;;;;5014515;28;20132;-63
2021/12/10 12:55:22;;;;;;;3.47;0.75;;;21.10;50.30;;;;;;5014617;28;20052;-63
2021/12/10 12:58:03;;;;;;;2.45;0.73;;;21.10;50.20;;;;;;5013934;28;20042;-63
2021/12/10 13:01:06;;;;;;;2.10;0.60;;;21.10;50.30;;;;;;5013342;28;20042;-64
2021/12/10 13:03:40;;;;;;;2.05;0.60;;;21.20;50.40;;;;;;5021470;28;20100;-64
2021/12/10 13:06:18;;;;;;;2.45;0.60;;;21.20;50.40;;;;;;5023136;28;20057;-64
2021/12/10 13:08:52;;;;;;;3.08;0.93;;;21.20;50.50;;;;;;5015394;28;20416;-63